Time;durP1;ratioP1;P1;durP2;ratioP2;P2;SDS_P1;SDS_P2;PMS_P1;PMS_P2;Temp;Humidity;BMP_temperature;BMP_pressure;BME280_temperature;BME280_humidity;BME280_pressure;Samples;Min_cycle;Max_cycle;Signal;HPM_P1;HPM_P2
2023/12/21 00:02:24;;;;;;;206.17;94.43;;;;;;;;;;4402571;32;319903;-71
2023/12/21 00:04:50;;;;;;;189.43;86.50;;;;;;;;;;4411132;32;319497;-72
2023/12/21 00:07:17;;;;;;;197.07;86.30;;;;;;;;;;4398911;32;331077;-71
2023/12/21 00:09:44;;;;;;;200.07;87.67;;;;;;;;;;4413032;32;319440;-72
2023/12/21 00:12:11;;;;;;;193.40;90.20;;;;;;;;;;4401161;32;320193;-72
2023/12/21 00:14:37;;;;;;;200.60;81.57;;;;;;;;;;4410833;32;319485;-72
2023/12/21 00:17:05;;;;;;;203.47;80.57;;;;;;;;;;4412402;32;318940;-72
2023/12/21 00:19:32;;;;;;;206.47;82.77;;;;;;;;;;4396473;32;420766;-72
2023/12/21 00:21:59;;;;;;;168.83;76.73;;;;;;;;;;4412488;32;319567;-72
2023/12/21 00:24:26;;;;;;;179.43;79.63;;;;;;;;;;4401413;32;319478;-71
2023/12/21 00:26:52;;;;;;;188.97;78.80;;;;;;;;;;4413245;32;319094;-71
2023/12/21 00:29:19;;;;;;;172.27;78.57;;;;;;;;;;4403052;32;319566;-70
2023/12/21 00:31:46;;;;;;;145.53;72.30;;;;;;;;;;4415456;32;319269;-71
2023/12/21 00:34:14;;;;;;;161.60;69.83;;;;;;;;;;4403950;32;319667;-72
2023/12/21 00:36:41;;;;;;;161.60;72.10;;;;;;;;;;4414409;32;319562;-72
2023/12/21 00:39:08;;;;;;;164.33;72.53;;;;;;;;;;4405709;32;319433;-72
2023/12/21 00:41:35;;;;;;;164.73;71.20;;;;;;;;;;4413095;32;319497;-72
2023/12/21 00:44:02;;;;;;;165.40;72.67;;;;;;;;;;4415485;32;319619;-72
2023/12/21 00:46:28;;;;;;;149.63;71.17;;;;;;;;;;4404870;32;319437;-71
2023/12/21 00:48:55;;;;;;;149.37;69.63;;;;;;;;;;4414787;32;319427;-73
2023/12/21 00:51:23;;;;;;;157.40;69.13;;;;;;;;;;4402723;32;318942;-72
2023/12/21 00:53:50;;;;;;;160.90;70.00;;;;;;;;;;4414998;32;319487;-72
2023/12/21 00:56:17;;;;;;;147.03;69.77;;;;;;;;;;4403450;32;319395;-71
2023/12/21 00:58:43;;;;;;;150.33;65.77;;;;;;;;;;4413327;32;319268;-72
2023/12/21 01:01:10;;;;;;;143.47;70.17;;;;;;;;;;4404990;32;320267;-71
2023/12/21 01:03:37;;;;;;;165.27;72.77;;;;;;;;;;4412139;32;319268;-72
2023/12/21 01:06:04;;;;;;;142.03;72.57;;;;;;;;;;4413165;32;319334;-72
2023/12/21 01:08:32;;;;;;;161.50;71.37;;;;;;;;;;4401913;32;370590;-72
2023/12/21 01:10:58;;;;;;;154.57;72.50;;;;;;;;;;4413222;32;319361;-72
2023/12/21 01:13:25;;;;;;;176.63;75.20;;;;;;;;;;4401709;32;319568;-72
2023/12/21 01:15:53;;;;;;;169.87;77.33;;;;;;;;;;4414931;32;319363;-72
2023/12/21 01:18:19;;;;;;;179.87;78.17;;;;;;;;;;4404506;32;335806;-72
2023/12/21 01:20:46;;;;;;;172.93;77.30;;;;;;;;;;4414802;32;319388;-72
2023/12/21 01:23:13;;;;;;;187.20;79.43;;;;;;;;;;4404924;32;319334;-71
2023/12/21 01:25:41;;;;;;;163.87;73.30;;;;;;;;;;4411450;32;319327;-72
2023/12/21 01:28:08;;;;;;;161.20;73.87;;;;;;;;;;4404586;32;319779;-72
2023/12/21 01:30:35;;;;;;;159.40;68.03;;;;;;;;;;4413197;32;319576;-72
2023/12/21 01:33:01;;;;;;;147.00;67.23;;;;;;;;;;4413153;32;358628;-72
2023/12/21 01:35:28;;;;;;;172.00;70.23;;;;;;;;;;4401332;32;319236;-72
2023/12/21 01:37:55;;;;;;;165.53;70.83;;;;;;;;;;4414359;32;319643;-72
2023/12/21 01:40:22;;;;;;;152.87;64.83;;;;;;;;;;4403628;32;319307;-72
2023/12/21 01:42:51;;;;;;;150.30;68.63;;;;;;;;;;4414120;32;318674;-73
2023/12/21 01:45:18;;;;;;;155.13;67.73;;;;;;;;;;4400096;32;319853;-71
2023/12/21 01:47:47;;;;;;;153.13;69.67;;;;;;;;;;4414512;32;319635;-74
2023/12/21 01:50:17;;;;;;;145.23;67.90;;;;;;;;;;4402519;32;319662;-72
2023/12/21 01:52:44;;;;;;;158.43;66.80;;;;;;;;;;4412635;32;330474;-72
2023/12/21 01:55:14;;;;;;;164.83;71.03;;;;;;;;;;4403388;32;319417;-72
2023/12/21 01:57:43;;;;;;;147.90;70.33;;;;;;;;;;4412557;32;319358;-73
2023/12/21 02:00:13;;;;;;;144.90;67.23;;;;;;;;;;4404447;32;318820;-71
2023/12/21 02:02:40;;;;;;;140.53;67.17;;;;;;;;;;4413993;32;319281;-71
2023/12/21 02:05:07;;;;;;;132.83;67.97;;;;;;;;;;4403141;32;319782;-72
2023/12/21 02:07:34;;;;;;;151.17;71.50;;;;;;;;;;4412030;32;318857;-72
2023/12/21 02:10:01;;;;;;;178.73;76.97;;;;;;;;;;4413755;32;319422;-71
2023/12/21 02:12:28;;;;;;;177.50;79.57;;;;;;;;;;4403044;32;319591;-71
2023/12/21 02:14:55;;;;;;;177.30;81.90;;;;;;;;;;4411210;32;348057;-73
2023/12/21 02:17:24;;;;;;;186.23;83.37;;;;;;;;;;4400190;32;319521;-73
2023/12/21 02:19:51;;;;;;;187.43;84.10;;;;;;;;;;4412614;32;319465;-71
2023/12/21 02:22:20;;;;;;;197.50;86.17;;;;;;;;;;4408136;32;319246;-72
2023/12/21 02:24:49;;;;;;;203.93;84.93;;;;;;;;;;4412444;32;319660;-71
2023/12/21 02:27:18;;;;;;;197.57;87.47;;;;;;;;;;4399770;32;355308;-70
2023/12/21 02:29:45;;;;;;;205.87;85.47;;;;;;;;;;4413903;32;319651;-72
2023/12/21 02:32:12;;;;;;;186.43;78.17;;;;;;;;;;4402082;32;319631;-73
2023/12/21 02:34:38;;;;;;;180.97;67.93;;;;;;;;;;4412049;32;319234;-73
2023/12/21 02:37:05;;;;;;;137.43;59.20;;;;;;;;;;4413415;32;319454;-73
2023/12/21 02:39:32;;;;;;;157.30;67.60;;;;;;;;;;4398251;32;420195;-73
2023/12/21 02:42:00;;;;;;;152.93;65.37;;;;;;;;;;4412740;32;319765;-73
2023/12/21 02:44:27;;;;;;;166.33;67.80;;;;;;;;;;4402139;32;319446;-71
2023/12/21 02:46:54;;;;;;;150.03;67.77;;;;;;;;;;4411781;32;332783;-71
2023/12/21 02:49:20;;;;;;;160.07;67.00;;;;;;;;;;4400761;32;319342;-71
2023/12/21 02:51:47;;;;;;;148.30;65.33;;;;;;;;;;4413041;32;319401;-71
2023/12/21 02:54:14;;;;;;;163.03;65.43;;;;;;;;;;4402952;32;319433;-71
2023/12/21 02:56:41;;;;;;;139.03;63.80;;;;;;;;;;4411614;32;319342;-72
2023/12/21 02:59:09;;;;;;;149.40;62.00;;;;;;;;;;4400030;32;339370;-71
2023/12/21 03:01:41;;;;;;;135.23;59.50;;;;;;;;;;4409074;32;319195;-72
2023/12/21 03:04:07;;;;;;;123.97;59.20;;;;;;;;;;4401245;32;319279;-71
2023/12/21 03:06:34;;;;;;;125.90;58.83;;;;;;;;;;4413496;32;319620;-71
2023/12/21 03:09:01;;;;;;;107.67;52.77;;;;;;;;;;4412003;32;319312;-72
2023/12/21 03:11:27;;;;;;;120.40;56.30;;;;;;;;;;4399433;32;319816;-72
2023/12/21 03:13:54;;;;;;;120.73;57.13;;;;;;;;;;4412820;32;318654;-72
2023/12/21 03:16:22;;;;;;;136.13;59.00;;;;;;;;;;4401938;32;319475;-74
2023/12/21 03:18:49;;;;;;;102.80;55.27;;;;;;;;;;4413108;32;318586;-73
2023/12/21 03:21:16;;;;;;;150.93;57.77;;;;;;;;;;4400218;32;319484;-72
2023/12/21 03:23:43;;;;;;;115.57;54.23;;;;;;;;;;4412200;32;327032;-72
2023/12/21 03:26:10;;;;;;;103.23;51.47;;;;;;;;;;4403266;32;319370;-73
2023/12/21 03:28:37;;;;;;;121.87;52.80;;;;;;;;;;4411868;32;319515;-72
2023/12/21 03:31:08;;;;;;;131.13;53.83;;;;;;;;;;4412436;32;319470;-72
2023/12/21 03:33:36;;;;;;;135.50;53.47;;;;;;;;;;4396910;32;418593;-72
2023/12/21 03:36:04;;;;;;;129.53;58.67;;;;;;;;;;4410747;32;319632;-73
2023/12/21 03:38:30;;;;;;;128.07;53.07;;;;;;;;;;4403022;32;319557;-72
2023/12/21 03:40:57;;;;;;;103.87;48.97;;;;;;;;;;4412613;32;319388;-72
2023/12/21 03:43:24;;;;;;;101.37;50.57;;;;;;;;;;4398999;32;319475;-73
2023/12/21 03:45:50;;;;;;;94.67;46.60;;;;;;;;;;4411358;32;320091;-73
2023/12/21 03:48:17;;;;;;;97.10;46.07;;;;;;;;;;4402883;32;318510;-72
2023/12/21 03:50:45;;;;;;;104.80;48.87;;;;;;;;;;4412560;32;318355;-72
2023/12/21 03:53:16;;;;;;;113.67;48.50;;;;;;;;;;4402569;32;319455;-72
2023/12/21 03:55:43;;;;;;;98.30;45.93;;;;;;;;;;4412518;32;319607;-72
2023/12/21 03:58:10;;;;;;;119.37;53.37;;;;;;;;;;4401727;32;318424;-71
2023/12/21 04:00:37;;;;;;;98.57;50.53;;;;;;;;;;4411063;32;319592;-72
2023/12/21 04:03:04;;;;;;;98.67;50.63;;;;;;;;;;4412957;32;318406;-73
2023/12/21 04:05:31;;;;;;;117.57;51.43;;;;;;;;;;4395331;32;417438;-72
2023/12/21 04:07:59;;;;;;;131.90;52.57;;;;;;;;;;4411514;32;319556;-73
2023/12/21 04:10:26;;;;;;;128.43;55.93;;;;;;;;;;4401029;32;319476;-73
2023/12/21 04:12:53;;;;;;;132.37;56.73;;;;;;;;;;4413719;32;319192;-73
2023/12/21 04:15:20;;;;;;;120.23;55.23;;;;;;;;;;4397393;32;319565;-72
2023/12/21 04:17:46;;;;;;;126.20;56.40;;;;;;;;;;4408583;32;318929;-72
2023/12/21 04:20:13;;;;;;;120.93;58.33;;;;;;;;;;4410085;32;319510;-72
2023/12/21 04:22:40;;;;;;;134.60;63.37;;;;;;;;;;4411662;32;319574;-72
2023/12/21 04:25:09;;;;;;;151.20;65.83;;;;;;;;;;4400718;32;319621;-71
2023/12/21 04:27:36;;;;;;;168.73;67.97;;;;;;;;;;4410370;32;319842;-72
2023/12/21 04:30:03;;;;;;;146.00;67.10;;;;;;;;;;4411297;32;319454;-72
2023/12/21 04:32:30;;;;;;;172.93;65.97;;;;;;;;;;4402505;32;319548;-73
2023/12/21 04:34:57;;;;;;;159.77;67.03;;;;;;;;;;4410305;32;319509;-72
2023/12/21 04:37:24;;;;;;;150.07;67.10;;;;;;;;;;4398389;32;318871;-72
2023/12/21 04:39:51;;;;;;;167.43;69.87;;;;;;;;;;4409925;32;358963;-73
2023/12/21 04:42:19;;;;;;;195.60;76.80;;;;;;;;;;4402601;32;319620;-72
2023/12/21 04:44:45;;;;;;;147.67;66.17;;;;;;;;;;4412069;32;319203;-73
2023/12/21 04:47:12;;;;;;;155.60;65.17;;;;;;;;;;4402374;32;319609;-73
2023/12/21 04:49:39;;;;;;;146.00;58.37;;;;;;;;;;4409225;32;319455;-74
2023/12/21 04:52:06;;;;;;;125.43;53.13;;;;;;;;;;4402084;32;319635;-74
2023/12/21 04:54:33;;;;;;;115.20;54.17;;;;;;;;;;4411808;32;319567;-73
2023/12/21 04:57:00;;;;;;;129.17;53.83;;;;;;;;;;4400081;32;319303;-72
2023/12/21 04:59:29;;;;;;;123.47;55.03;;;;;;;;;;4410924;32;318834;-72
2023/12/21 05:01:56;;;;;;;99.87;50.40;;;;;;;;;;4407142;32;319776;-71
2023/12/21 05:04:23;;;;;;;97.70;43.57;;;;;;;;;;4408904;32;317664;-73
2023/12/21 05:06:50;;;;;;;92.63;43.97;;;;;;;;;;4411190;32;318341;-74
2023/12/21 05:09:16;;;;;;;86.60;42.03;;;;;;;;;;4400454;32;318305;-73
2023/12/21 05:11:43;;;;;;;96.97;42.80;;;;;;;;;;4412798;32;318553;-73
2023/12/21 05:14:10;;;;;;;89.00;39.87;;;;;;;;;;4402384;32;318109;-71
2023/12/21 05:16:40;;;;;;;81.07;41.80;;;;;;;;;;4413270;32;317397;-73
2023/12/21 05:19:07;;;;;;;80.80;35.97;;;;;;;;;;4403186;32;318956;-72
2023/12/21 05:21:36;;;;;;;86.40;40.77;;;;;;;;;;4414463;32;318735;-73
2023/12/21 05:24:03;;;;;;;87.73;41.47;;;;;;;;;;4403395;32;360281;-73
2023/12/21 05:26:31;;;;;;;85.83;40.77;;;;;;;;;;4412139;32;318506;-73
2023/12/21 05:28:57;;;;;;;89.20;42.30;;;;;;;;;;4403193;32;318104;-71
2023/12/21 05:31:25;;;;;;;81.53;39.17;;;;;;;;;;4413167;32;329267;-72
2023/12/21 05:33:53;;;;;;;89.13;42.10;;;;;;;;;;4413032;32;318342;-73
2023/12/21 05:36:23;;;;;;;96.17;42.00;;;;;;;;;;4401141;32;319282;-74
2023/12/21 05:38:50;;;;;;;77.53;40.17;;;;;;;;;;4414143;32;318316;-73
2023/12/21 05:41:17;;;;;;;70.20;38.03;;;;;;;;;;4404516;32;318266;-73
2023/12/21 05:43:44;;;;;;;82.20;39.87;;;;;;;;;;4414283;32;318237;-73
2023/12/21 05:46:11;;;;;;;72.63;40.37;;;;;;;;;;4401945;32;318325;-72
2023/12/21 05:48:38;;;;;;;77.07;40.47;;;;;;;;;;4413957;32;318685;-74
2023/12/21 05:51:06;;;;;;;100.83;44.60;;;;;;;;;;4402695;32;318242;-73
2023/12/21 05:53:33;;;;;;;95.07;46.50;;;;;;;;;;4413197;32;319383;-73
2023/12/21 05:56:01;;;;;;;88.07;45.63;;;;;;;;;;4403232;32;317812;-71
2023/12/21 05:58:28;;;;;;;99.30;47.73;;;;;;;;;;4411293;32;318500;-71
2023/12/21 06:00:55;;;;;;;103.97;48.57;;;;;;;;;;4411921;32;318352;-71
2023/12/21 06:03:21;;;;;;;119.23;51.13;;;;;;;;;;4399968;32;419802;-73
2023/12/21 06:05:49;;;;;;;119.43;52.87;;;;;;;;;;4413653;32;319460;-72
2023/12/21 06:08:17;;;;;;;124.93;55.33;;;;;;;;;;4399528;32;319306;-71
2023/12/21 06:10:44;;;;;;;121.40;54.83;;;;;;;;;;4412417;32;318713;-73
2023/12/21 06:13:10;;;;;;;122.53;54.63;;;;;;;;;;4401340;32;344818;-73
2023/12/21 06:15:37;;;;;;;150.17;57.90;;;;;;;;;;4413427;32;319530;-73
2023/12/21 06:18:05;;;;;;;129.07;57.60;;;;;;;;;;4403640;32;319218;-71
2023/12/21 06:20:35;;;;;;;131.80;60.33;;;;;;;;;;4412084;32;319815;-74
2023/12/21 06:23:01;;;;;;;148.33;63.20;;;;;;;;;;4401774;32;331785;-73
2023/12/21 06:25:30;;;;;;;145.77;62.00;;;;;;;;;;4413631;32;319509;-73
2023/12/21 06:27:57;;;;;;;141.77;60.80;;;;;;;;;;4402203;32;319259;-73
2023/12/21 06:30:23;;;;;;;110.60;49.70;;;;;;;;;;4410201;32;341961;-72
2023/12/21 06:32:50;;;;;;;112.80;52.10;;;;;;;;;;4413017;32;319296;-71
2023/12/21 06:35:17;;;;;;;136.33;57.67;;;;;;;;;;4402613;32;319315;-72
2023/12/21 06:37:45;;;;;;;119.47;58.77;;;;;;;;;;4412686;32;319673;-72
2023/12/21 06:40:12;;;;;;;135.93;61.23;;;;;;;;;;4398586;32;319133;-71
2023/12/21 06:42:40;;;;;;;106.27;51.13;;;;;;;;;;4414673;32;319677;-72
2023/12/21 06:45:07;;;;;;;111.20;55.07;;;;;;;;;;4404159;32;319403;-73
2023/12/21 06:47:34;;;;;;;119.00;58.57;;;;;;;;;;4413060;32;318850;-74
2023/12/21 06:50:01;;;;;;;153.83;69.23;;;;;;;;;;4403006;32;318763;-73
2023/12/21 06:52:30;;;;;;;148.53;68.87;;;;;;;;;;4409618;32;318821;-71
2023/12/21 06:54:59;;;;;;;143.23;69.67;;;;;;;;;;4401894;32;319399;-72
2023/12/21 06:57:27;;;;;;;133.90;66.37;;;;;;;;;;4412518;32;318591;-73
2023/12/21 06:59:55;;;;;;;140.93;63.30;;;;;;;;;;4411678;32;319792;-73
2023/12/21 07:02:22;;;;;;;130.63;61.73;;;;;;;;;;4396778;32;420583;-72
2023/12/21 07:04:48;;;;;;;123.73;61.73;;;;;;;;;;4411801;32;318846;-74
2023/12/21 07:07:15;;;;;;;133.27;67.50;;;;;;;;;;4401808;32;319629;-69
2023/12/21 07:09:42;;;;;;;148.97;68.13;;;;;;;;;;4412884;32;318108;-68
2023/12/21 07:12:09;;;;;;;153.77;72.90;;;;;;;;;;4399523;32;319703;-68
2023/12/21 07:14:39;;;;;;;158.00;74.43;;;;;;;;;;4411727;32;319284;-68
2023/12/21 07:17:08;;;;;;;126.93;64.50;;;;;;;;;;4402682;32;319839;-70
2023/12/21 07:19:37;;;;;;;145.53;65.20;;;;;;;;;;4411477;32;319823;-74
2023/12/21 07:22:04;;;;;;;152.13;65.77;;;;;;;;;;4402538;32;319408;-74
2023/12/21 07:24:31;;;;;;;161.97;72.27;;;;;;;;;;4410772;32;318403;-71
2023/12/21 07:26:58;;;;;;;180.83;75.07;;;;;;;;;;4401336;32;319374;-69
2023/12/21 07:29:24;;;;;;;168.33;71.07;;;;;;;;;;4411415;32;319431;-77
2023/12/21 07:31:51;;;;;;;182.27;78.77;;;;;;;;;;4412600;32;318653;-77
2023/12/21 07:34:20;;;;;;;182.20;77.87;;;;;;;;;;4400531;32;319624;-72
2023/12/21 07:36:46;;;;;;;169.50;75.97;;;;;;;;;;4412414;32;319456;-73
2023/12/21 07:39:13;;;;;;;178.07;77.57;;;;;;;;;;4402884;32;319375;-71
2023/12/21 07:41:40;;;;;;;171.23;79.20;;;;;;;;;;4412795;32;319521;-72
2023/12/21 07:44:07;;;;;;;196.97;86.17;;;;;;;;;;4398474;32;318724;-71
2023/12/21 07:46:33;;;;;;;188.33;90.80;;;;;;;;;;4411441;32;352011;-73
2023/12/21 07:49:00;;;;;;;183.13;85.50;;;;;;;;;;4401951;32;319527;-72
2023/12/21 07:51:28;;;;;;;181.87;81.60;;;;;;;;;;4411733;32;318881;-75
2023/12/21 07:53:55;;;;;;;183.97;80.20;;;;;;;;;;4412271;32;318822;-73
2023/12/21 07:56:22;;;;;;;196.77;86.50;;;;;;;;;;4398384;32;418266;-79
2023/12/21 07:58:49;;;;;;;191.87;84.13;;;;;;;;;;4411950;32;319332;-79
2023/12/21 08:01:16;;;;;;;204.47;91.67;;;;;;;;;;4402506;32;319624;-72
2023/12/21 08:03:43;;;;;;;203.93;95.80;;;;;;;;;;4413154;32;319120;-65
2023/12/21 08:06:19;;;;;;;208.93;94.63;;;;;;;;;;4398818;32;357220;-65
2023/12/21 08:08:50;;;;;;;175.90;85.70;;;;;;;;;;4411934;32;319648;-65
2023/12/21 08:11:17;;;;;;;159.37;76.23;;;;;;;;;;4400057;32;356221;-72
2023/12/21 08:13:43;;;;;;;139.83;67.63;;;;;;;;;;4411770;32;319651;-72
2023/12/21 08:16:10;;;;;;;134.40;60.80;;;;;;;;;;4400250;32;319564;-71
2023/12/21 08:18:37;;;;;;;121.97;63.97;;;;;;;;;;4410680;32;319630;-71
2023/12/21 08:21:04;;;;;;;118.87;59.80;;;;;;;;;;4401218;32;319650;-72
2023/12/21 08:23:30;;;;;;;118.43;62.03;;;;;;;;;;4412058;32;319858;-72
2023/12/21 08:25:58;;;;;;;127.40;71.13;;;;;;;;;;4401831;32;319562;-72
2023/12/21 08:28:29;;;;;;;123.20;61.50;;;;;;;;;;4410102;32;319098;-72
2023/12/21 08:30:56;;;;;;;125.73;62.77;;;;;;;;;;4412175;32;319324;-73
2023/12/21 08:33:25;;;;;;;127.60;64.73;;;;;;;;;;4398971;32;419176;-72
2023/12/21 08:35:52;;;;;;;122.73;61.80;;;;;;;;;;4410832;32;319525;-73
2023/12/21 08:38:20;;;;;;;114.17;58.60;;;;;;;;;;4399564;32;319738;-74
2023/12/21 08:40:47;;;;;;;122.37;63.90;;;;;;;;;;4411944;32;318867;-72
2023/12/21 08:43:15;;;;;;;253.67;129.80;;;;;;;;;;4401393;32;319743;-73
2023/12/21 08:45:42;;;;;;;177.13;86.20;;;;;;;;;;4412101;32;320780;-73
2023/12/21 08:48:09;;;;;;;183.37;88.93;;;;;;;;;;4401494;32;319784;-73
2023/12/21 08:50:35;;;;;;;199.50;95.40;;;;;;;;;;4415182;32;319393;-72
2023/12/21 08:53:02;;;;;;;216.13;97.10;;;;;;;;;;4405206;32;319693;-72
2023/12/21 08:55:29;;;;;;;207.03;100.03;;;;;;;;;;4414989;32;319544;-71
2023/12/21 08:57:57;;;;;;;242.90;106.57;;;;;;;;;;4404460;32;320941;-71
2023/12/21 09:00:25;;;;;;;231.97;104.77;;;;;;;;;;4412257;32;320399;-71
2023/12/21 09:02:52;;;;;;;250.13;111.00;;;;;;;;;;4412983;32;320591;-71
2023/12/21 09:05:19;;;;;;;251.37;113.93;;;;;;;;;;4403955;32;320641;-71
2023/12/21 09:07:46;;;;;;;249.30;117.80;;;;;;;;;;4412395;32;348242;-71
2023/12/21 09:10:12;;;;;;;279.57;129.57;;;;;;;;;;4402344;32;320415;-71
2023/12/21 09:12:39;;;;;;;268.60;114.80;;;;;;;;;;4414142;32;320816;-71
2023/12/21 09:15:08;;;;;;;234.70;108.40;;;;;;;;;;4404881;32;320583;-71
2023/12/21 09:17:36;;;;;;;244.73;105.90;;;;;;;;;;4412957;32;360696;-71
2023/12/21 09:20:03;;;;;;;252.23;108.07;;;;;;;;;;4403456;32;320365;-71
2023/12/21 09:22:30;;;;;;;244.00;107.93;;;;;;;;;;4411340;32;320632;-71
2023/12/21 09:24:57;;;;;;;246.10;108.80;;;;;;;;;;4401988;32;324045;-71
2023/12/21 09:27:23;;;;;;;244.20;117.10;;;;;;;;;;4413928;32;319886;-71
2023/12/21 09:29:50;;;;;;;244.27;114.63;;;;;;;;;;4414427;32;320208;-72
2023/12/21 09:32:17;;;;;;;236.47;107.43;;;;;;;;;;4400992;32;320381;-71
2023/12/21 09:34:48;;;;;;;219.97;105.43;;;;;;;;;;4413189;32;320826;-72
2023/12/21 09:37:15;;;;;;;225.00;107.83;;;;;;;;;;4403426;32;320701;-71
2023/12/21 09:39:41;;;;;;;231.90;111.33;;;;;;;;;;4413621;32;320479;-71
2023/12/21 09:42:10;;;;;;;221.53;107.23;;;;;;;;;;4401879;32;320729;-70
2023/12/21 09:44:38;;;;;;;241.87;116.47;;;;;;;;;;4414662;32;320355;-71
2023/12/21 09:47:05;;;;;;;197.77;94.77;;;;;;;;;;4402110;32;339837;-72
2023/12/21 09:49:36;;;;;;;217.13;104.53;;;;;;;;;;4412946;32;319415;-71
2023/12/21 09:52:08;;;;;;;226.77;101.47;;;;;;;;;;4404064;32;320636;-71
2023/12/21 09:54:37;;;;;;;225.73;107.27;;;;;;;;;;4413109;32;320813;-71
2023/12/21 09:57:05;;;;;;;226.23;112.80;;;;;;;;;;4402746;32;320846;-71
2023/12/21 09:59:33;;;;;;;233.93;108.93;;;;;;;;;;4418077;32;320572;-71
2023/12/21 10:02:00;;;;;;;234.83;114.87;;;;;;;;;;4404093;32;320513;-71
2023/12/21 10:04:26;;;;;;;273.73;124.83;;;;;;;;;;4411874;32;320441;-71
2023/12/21 10:06:54;;;;;;;246.97;122.40;;;;;;;;;;4412651;32;319982;-71
2023/12/21 10:09:22;;;;;;;249.60;121.77;;;;;;;;;;4403732;32;320527;-71
2023/12/21 10:11:50;;;;;;;274.30;130.57;;;;;;;;;;4411934;32;319912;-71
2023/12/21 10:14:16;;;;;;;301.27;134.13;;;;;;;;;;4401378;32;320509;-71
2023/12/21 10:16:43;;;;;;;291.73;137.00;;;;;;;;;;4411534;32;320626;-70
2023/12/21 10:19:11;;;;;;;301.63;137.70;;;;;;;;;;4402516;32;320687;-71
2023/12/21 10:21:40;;;;;;;324.00;149.93;;;;;;;;;;4412173;32;320515;-71
2023/12/21 10:24:07;;;;;;;318.07;149.53;;;;;;;;;;4401485;32;321227;-72
2023/12/21 10:26:42;;;;;;;299.80;139.77;;;;;;;;;;4413791;32;320452;-72
2023/12/21 10:29:09;;;;;;;296.13;141.43;;;;;;;;;;4402976;32;320807;-71
2023/12/21 10:31:36;;;;;;;283.50;133.40;;;;;;;;;;4412803;32;320056;-71
2023/12/21 10:34:03;;;;;;;283.07;135.70;;;;;;;;;;4403483;32;320326;-71
2023/12/21 10:36:32;;;;;;;286.77;138.07;;;;;;;;;;4410808;32;320571;-72
2023/12/21 10:38:59;;;;;;;283.83;137.37;;;;;;;;;;4401926;32;381760;-72
2023/12/21 10:41:26;;;;;;;302.30;146.47;;;;;;;;;;4411267;32;358465;-72
2023/12/21 10:43:55;;;;;;;286.97;141.93;;;;;;;;;;4413610;32;320501;-72
2023/12/21 10:46:22;;;;;;;297.27;140.97;;;;;;;;;;4394474;32;359150;-72
2023/12/21 10:48:50;;;;;;;297.17;139.97;;;;;;;;;;4411564;32;319783;-72
2023/12/21 10:51:19;;;;;;;345.57;169.23;;;;;;;;;;4403193;32;320350;-73
2023/12/21 10:53:48;;;;;;;307.53;153.73;;;;;;;;;;4413391;32;320672;-73
2023/12/21 10:56:15;;;;;;;301.03;146.27;;;;;;;;;;4400442;32;320490;-73
2023/12/21 10:58:42;;;;;;;318.73;158.87;;;;;;;;;;4411222;32;347993;-73
2023/12/21 11:01:12;;;;;;;293.30;148.17;;;;;;;;;;4401917;32;320679;-72
2023/12/21 11:03:40;;;;;;;297.23;148.77;;;;;;;;;;4413062;32;320372;-72
2023/12/21 11:06:08;;;;;;;298.83;153.57;;;;;;;;;;4401401;32;320533;-72
2023/12/21 11:08:37;;;;;;;288.10;150.13;;;;;;;;;;4412829;32;320444;-73
2023/12/21 11:11:04;;;;;;;282.13;141.50;;;;;;;;;;4403346;32;320571;-72
2023/12/21 11:13:31;;;;;;;283.90;148.17;;;;;;;;;;4411960;32;320450;-74
2023/12/21 11:15:59;;;;;;;298.33;144.13;;;;;;;;;;4399949;32;341730;-72
2023/12/21 11:18:27;;;;;;;279.13;139.00;;;;;;;;;;4410903;32;320249;-73
2023/12/21 11:20:56;;;;;;;278.07;144.03;;;;;;;;;;4411537;32;348698;-73
2023/12/21 11:23:23;;;;;;;291.83;144.30;;;;;;;;;;4400030;32;419105;-73
2023/12/21 11:25:57;;;;;;;263.07;141.03;;;;;;;;;;4412229;32;319652;-73
2023/12/21 11:28:28;;;;;;;272.83;142.33;;;;;;;;;;4390917;32;419661;-73
2023/12/21 11:30:55;;;;;;;299.10;153.50;;;;;;;;;;4411524;32;319563;-73
2023/12/21 11:33:30;;;;;;;288.97;150.27;;;;;;;;;;4389800;32;419476;-73
2023/12/21 11:35:57;;;;;;;284.60;152.73;;;;;;;;;;4403315;32;320410;-73
2023/12/21 11:38:38;;;;;;;307.90;152.37;;;;;;;;;;4409599;32;320664;-73
2023/12/21 11:41:05;;;;;;;302.57;154.53;;;;;;;;;;4402709;32;321169;-73
2023/12/21 11:43:32;;;;;;;318.73;163.73;;;;;;;;;;4412788;32;320497;-71
2023/12/21 11:45:58;;;;;;;301.30;157.80;;;;;;;;;;4402675;32;320528;-74
2023/12/21 11:48:25;;;;;;;303.90;152.70;;;;;;;;;;4409354;32;320586;-73
2023/12/21 11:51:02;;;;;;;299.43;156.07;;;;;;;;;;4410515;32;358805;-73
2023/12/21 11:53:29;;;;;;;296.87;154.70;;;;;;;;;;4398556;32;421866;-72
2023/12/21 11:55:57;;;;;;;312.73;158.27;;;;;;;;;;4411360;32;320545;-72
2023/12/21 11:58:25;;;;;;;262.43;137.33;;;;;;;;;;4397201;32;421823;-71
2023/12/21 12:00:53;;;;;;;128.63;65.80;;;;;;;;;;4412323;32;319631;-74
2023/12/21 12:03:20;;;;;;;353.60;178.67;;;;;;;;;;4401370;32;319347;-72
2023/12/21 12:05:48;;;;;;;325.20;168.20;;;;;;;;;;4410905;32;320453;-72
2023/12/21 12:08:20;;;;;;;305.87;158.83;;;;;;;;;;4398561;32;320300;-71
2023/12/21 12:10:47;;;;;;;299.23;157.20;;;;;;;;;;4412419;32;320386;-72
2023/12/21 12:13:18;;;;;;;314.77;165.07;;;;;;;;;;4401376;32;320335;-72
2023/12/21 12:15:47;;;;;;;294.13;161.13;;;;;;;;;;4412677;32;320147;-72
2023/12/21 12:18:14;;;;;;;326.17;167.93;;;;;;;;;;4399299;32;320475;-73
2023/12/21 12:20:43;;;;;;;347.73;178.10;;;;;;;;;;4413737;32;324856;-73
2023/12/21 12:23:10;;;;;;;329.90;175.17;;;;;;;;;;4407165;32;320520;-73
2023/12/21 12:25:38;;;;;;;311.77;172.40;;;;;;;;;;4417483;32;320298;-74
2023/12/21 12:28:05;;;;;;;322.43;169.27;;;;;;;;;;4405931;32;320693;-73
2023/12/21 12:30:32;;;;;;;345.73;182.17;;;;;;;;;;4414430;32;320159;-72
2023/12/21 12:33:02;;;;;;;335.90;168.33;;;;;;;;;;4405174;32;320306;-72
2023/12/21 12:35:29;;;;;;;358.80;190.53;;;;;;;;;;4415988;32;320545;-74
2023/12/21 12:37:56;;;;;;;332.67;179.67;;;;;;;;;;4416230;32;321432;-74
2023/12/21 12:40:23;;;;;;;324.47;178.13;;;;;;;;;;4400012;32;420175;-73
2023/12/21 12:42:52;;;;;;;351.40;185.60;;;;;;;;;;4416586;32;320773;-73
2023/12/21 12:45:19;;;;;;;335.80;184.33;;;;;;;;;;4407595;32;320892;-73
2023/12/21 12:47:46;;;;;;;345.03;187.30;;;;;;;;;;4416331;32;320309;-73
2023/12/21 12:50:14;;;;;;;357.00;187.43;;;;;;;;;;4404434;32;320496;-73
2023/12/21 12:52:41;;;;;;;338.70;182.13;;;;;;;;;;4416755;32;320732;-73
2023/12/21 12:55:09;;;;;;;338.73;178.47;;;;;;;;;;4406751;32;320328;-73
2023/12/21 12:57:36;;;;;;;327.27;175.67;;;;;;;;;;4417023;32;319938;-74
2023/12/21 13:00:05;;;;;;;338.73;171.33;;;;;;;;;;4407107;32;321068;-74
2023/12/21 13:02:32;;;;;;;313.27;161.90;;;;;;;;;;4414865;32;320113;-73
2023/12/21 13:05:00;;;;;;;347.17;178.40;;;;;;;;;;4404888;32;320647;-73
2023/12/21 13:07:27;;;;;;;315.93;165.77;;;;;;;;;;4417031;32;320405;-74
2023/12/21 13:09:54;;;;;;;299.50;169.83;;;;;;;;;;4417058;32;320405;-74
2023/12/21 13:12:21;;;;;;;319.80;171.57;;;;;;;;;;4404653;32;320688;-73
2023/12/21 13:14:47;;;;;;;311.93;169.33;;;;;;;;;;4415795;32;320357;-74
2023/12/21 13:17:16;;;;;;;306.03;167.40;;;;;;;;;;4405052;32;352192;-74
2023/12/21 13:19:43;;;;;;;322.93;169.67;;;;;;;;;;4415745;32;320572;-74
2023/12/21 13:22:11;;;;;;;338.30;176.90;;;;;;;;;;4402609;32;345033;-73
2023/12/21 13:24:39;;;;;;;307.60;172.73;;;;;;;;;;4417056;32;320829;-73
2023/12/21 13:27:06;;;;;;;320.00;178.37;;;;;;;;;;4406785;32;320297;-74
2023/12/21 13:29:33;;;;;;;336.23;177.53;;;;;;;;;;4417020;32;320423;-74
2023/12/21 13:32:01;;;;;;;352.10;193.13;;;;;;;;;;4402557;32;321464;-72
2023/12/21 13:34:32;;;;;;;368.13;195.10;;;;;;;;;;4412324;32;320711;-73
2023/12/21 13:36:59;;;;;;;337.60;189.90;;;;;;;;;;4403558;32;320523;-72
2023/12/21 13:39:27;;;;;;;353.33;198.40;;;;;;;;;;4412705;32;320504;-72
2023/12/21 13:41:55;;;;;;;350.30;195.27;;;;;;;;;;4414409;32;321104;-72
2023/12/21 13:44:22;;;;;;;311.17;173.43;;;;;;;;;;4399199;32;419635;-72
2023/12/21 13:46:49;;;;;;;315.67;177.47;;;;;;;;;;4414170;32;320233;-72
2023/12/21 13:49:17;;;;;;;305.83;169.17;;;;;;;;;;4402216;32;320339;-72
2023/12/21 13:51:46;;;;;;;283.37;160.13;;;;;;;;;;4414296;32;320497;-73